createdAt,value
2022-10-17T00:00:52.444Z,15.35
2022-10-17T00:03:20.068Z,11.80
2022-10-17T00:05:48.429Z,18.98
2022-10-17T00:08:17.201Z,12.20
2022-10-17T00:10:45.216Z,13.18
2022-10-17T00:13:12.901Z,11.80
2022-10-17T00:15:44.365Z,11.35
2022-10-17T00:18:11.988Z,11.75
2022-10-17T00:20:39.320Z,11.93
2022-10-17T00:23:06.595Z,13.55
2022-10-17T00:25:34.211Z,13.13
2022-10-17T00:28:01.519Z,10.82
2022-10-17T00:30:28.824Z,10.43
2022-10-17T00:32:57.111Z,12.20
2022-10-17T00:35:25.152Z,13.60
2022-10-17T00:37:52.452Z,10.15
2022-10-17T00:40:20.123Z,10.82
2022-10-17T00:42:47.589Z,12.05
2022-10-17T00:45:26.419Z,10.60
2022-10-17T00:47:58.790Z,10.73
2022-10-17T00:50:26.595Z,11.23
2022-10-17T00:52:54.803Z,11.48
2022-10-17T00:55:25.850Z,11.95
2022-10-17T00:57:53.409Z,13.10
2022-10-17T01:00:21.073Z,11.38
2022-10-17T01:02:48.555Z,10.57
2022-10-17T01:05:18.041Z,10.75
2022-10-17T01:07:46.388Z,11.70
2022-10-17T01:10:14.245Z,11.90
2022-10-17T01:13:04.711Z,10.55
2022-10-17T01:16:00.286Z,11.32
2022-10-17T01:18:46.589Z,9.38
2022-10-17T01:21:17.053Z,12.55
2022-10-17T01:24:02.944Z,10.45
2022-10-17T01:26:37.562Z,12.45
2022-10-17T01:29:34.447Z,9.82
2022-10-17T01:32:14.113Z,10.75
2022-10-17T01:34:45.645Z,10.10
2022-10-17T01:37:20.219Z,12.73
2022-10-17T01:40:04.207Z,10.57
2022-10-17T01:43:03.759Z,8.98
2022-10-17T01:45:48.404Z,13.52
2022-10-17T01:48:22.910Z,13.27
2022-10-17T01:51:13.830Z,9.35
2022-10-17T01:53:49.160Z,10.82
2022-10-17T01:56:17.327Z,9.05
2022-10-17T01:58:55.568Z,11.23
2022-10-17T02:01:24.389Z,11.27
2022-10-17T02:03:52.987Z,9.60
2022-10-17T02:06:21.574Z,8.95
2022-10-17T02:08:51.642Z,12.50
2022-10-17T02:11:25.299Z,8.43
2022-10-17T02:17:14.385Z,9.63
2022-10-17T02:20:01.625Z,11.27
2022-10-17T02:22:41.994Z,10.77
2022-10-17T02:25:20.692Z,10.48
2022-10-17T02:28:09.163Z,11.18
2022-10-17T02:30:39.797Z,11.00
2022-10-17T02:33:28.195Z,10.60
2022-10-17T02:36:00.695Z,11.43
2022-10-17T02:38:30.756Z,11.50
2022-10-17T02:40:59.194Z,13.75
2022-10-17T02:43:26.972Z,12.70
2022-10-17T02:45:54.617Z,11.15
2022-10-17T02:48:25.420Z,11.55
2022-10-17T02:51:16.889Z,11.07
2022-10-17T02:53:53.738Z,10.23
2022-10-17T02:56:21.689Z,8.63
2022-10-17T02:58:53.387Z,12.35
2022-10-17T03:01:21.119Z,12.47
2022-10-17T03:03:48.833Z,14.00
2022-10-17T03:06:16.320Z,14.80
2022-10-17T03:08:43.648Z,12.48
2022-10-17T03:11:11.665Z,12.70
2022-10-17T03:13:39.990Z,14.40
2022-10-17T03:16:07.703Z,12.93
2022-10-17T03:18:35.539Z,10.45
2022-10-17T03:21:03.185Z,12.10
2022-10-17T03:23:30.667Z,11.85
2022-10-17T03:25:58.431Z,11.23
2022-10-17T03:28:25.930Z,11.05
2022-10-17T03:30:53.384Z,11.00
2022-10-17T03:33:21.006Z,14.10
2022-10-17T03:38:21.357Z,12.15
2022-10-17T03:40:56.164Z,13.18
2022-10-17T03:43:23.832Z,11.60
2022-10-17T03:45:51.195Z,11.63
2022-10-17T03:48:18.597Z,14.15
2022-10-17T03:50:46.402Z,12.23
2022-10-17T03:53:13.985Z,10.57
2022-10-17T03:55:41.402Z,12.02
2022-10-17T03:58:09.110Z,10.30
2022-10-17T04:00:36.581Z,9.57
2022-10-17T04:03:04.326Z,13.05
2022-10-17T04:05:32.180Z,11.85
2022-10-17T04:08:02.411Z,9.55
2022-10-17T04:10:35.304Z,9.60
2022-10-17T04:13:03.001Z,9.95
2022-10-17T04:15:30.804Z,10.52
2022-10-17T04:17:58.744Z,12.75
2022-10-17T04:20:26.181Z,10.98
2022-10-17T04:22:53.680Z,11.10
2022-10-17T04:25:21.651Z,11.02
2022-10-17T04:27:49.230Z,11.15
2022-10-17T04:30:17.164Z,12.15
2022-10-17T04:32:45.183Z,13.02
2022-10-17T04:35:13.012Z,9.43
2022-10-17T04:37:41.472Z,10.85
2022-10-17T04:40:10.168Z,11.30
2022-10-17T04:42:37.987Z,10.30
2022-10-17T04:45:06.185Z,12.45
2022-10-17T04:47:35.197Z,12.60
2022-10-17T04:50:03.527Z,10.07
2022-10-17T04:52:32.516Z,12.93
2022-10-17T04:55:00.207Z,14.18
2022-10-17T04:57:27.653Z,12.05
2022-10-17T04:59:55.536Z,11.80
2022-10-17T05:02:23.503Z,11.48
2022-10-17T05:04:51.060Z,10.82
2022-10-17T05:07:18.444Z,15.48
2022-10-17T05:09:46.219Z,13.62
2022-10-17T05:12:13.738Z,11.65
2022-10-17T05:14:41.552Z,12.32
2022-10-17T05:17:09.183Z,12.30
2022-10-17T05:19:37.223Z,15.82
2022-10-17T05:22:04.886Z,12.48
2022-10-17T05:24:32.522Z,14.93
2022-10-17T05:26:59.878Z,12.65
2022-10-17T05:29:27.242Z,18.35
2022-10-17T05:31:55.375Z,15.95
2022-10-17T05:34:24.407Z,12.75
2022-10-17T05:36:51.778Z,12.27
2022-10-17T05:39:20.716Z,16.10
2022-10-17T05:41:48.910Z,19.50
2022-10-17T05:44:16.647Z,17.02
2022-10-17T05:46:45.551Z,17.17
2022-10-17T05:49:25.194Z,18.23
2022-10-17T05:51:59.954Z,19.92
2022-10-17T05:54:27.669Z,16.62
2022-10-17T05:56:56.191Z,18.17
2022-10-17T05:59:25.846Z,17.95
2022-10-17T06:01:54.326Z,19.27
2022-10-17T06:04:22.064Z,18.10
2022-10-17T06:06:49.474Z,21.17
2022-10-17T06:09:16.883Z,16.95
2022-10-17T06:11:44.771Z,20.15
2022-10-17T06:14:12.446Z,19.15
2022-10-17T06:16:40.174Z,21.25
2022-10-17T06:19:07.804Z,17.12
2022-10-17T06:21:37.755Z,19.35
2022-10-17T06:24:05.405Z,20.12
2022-10-17T06:26:33.273Z,21.55
2022-10-17T06:29:00.742Z,39.10
2022-10-17T06:31:29.119Z,46.65
2022-10-17T06:33:56.884Z,38.45
2022-10-17T06:36:24.254Z,50.63
2022-10-17T06:38:51.721Z,43.70
2022-10-17T06:41:19.550Z,39.78
2022-10-17T06:43:47.300Z,29.85
2022-10-17T06:46:26.688Z,23.50
2022-10-17T06:48:54.154Z,19.00
2022-10-17T06:51:22.500Z,28.05
2022-10-17T06:53:49.942Z,22.58
2022-10-17T06:56:22.594Z,17.17
2022-10-17T06:58:51.333Z,17.10
2022-10-17T07:01:18.942Z,19.52
2022-10-17T07:03:50.057Z,16.33
2022-10-17T07:06:17.992Z,20.00
2022-10-17T07:08:48.352Z,17.83
2022-10-17T07:11:19.394Z,24.92
2022-10-17T07:13:49.347Z,16.55
2022-10-17T07:16:17.115Z,16.25
2022-10-17T07:18:49.315Z,20.75
2022-10-17T07:23:44.600Z,17.27
2022-10-17T07:26:14.576Z,20.73
2022-10-17T07:28:44.525Z,19.33
2022-10-17T07:31:16.933Z,20.67
2022-10-17T07:36:18.405Z,19.75
2022-10-17T07:38:46.779Z,16.83
2022-10-17T07:41:17.887Z,17.87
2022-10-17T07:43:48.926Z,19.55
2022-10-17T07:46:16.779Z,23.05
2022-10-17T07:48:45.084Z,14.63
2022-10-17T07:51:12.773Z,14.38
2022-10-17T07:53:42.722Z,18.55
2022-10-17T07:56:12.953Z,22.30
2022-10-17T07:58:40.363Z,19.12
2022-10-17T08:01:14.727Z,16.73
2022-10-17T08:03:48.493Z,18.17
2022-10-17T08:06:15.878Z,15.98
2022-10-17T08:08:44.316Z,15.70
2022-10-17T08:11:14.277Z,10.70
2022-10-17T08:13:42.349Z,14.70
2022-10-17T08:16:11.776Z,18.92
2022-10-17T08:18:40.379Z,16.48
2022-10-17T08:21:08.451Z,15.20
2022-10-17T08:23:36.821Z,23.48
2022-10-17T08:26:06.058Z,16.27
2022-10-17T08:28:38.380Z,19.02
2022-10-17T08:31:11.805Z,16.08
2022-10-17T08:33:39.525Z,14.40
2022-10-17T08:36:07.934Z,14.60
2022-10-17T08:38:37.553Z,20.37
2022-10-17T08:41:20.929Z,19.50
2022-10-17T08:44:00.623Z,18.23
2022-10-17T08:46:34.581Z,15.48
2022-10-17T08:49:05.682Z,20.37
2022-10-17T08:51:35.796Z,19.95
2022-10-17T08:54:14.773Z,24.08
2022-10-17T08:56:49.172Z,20.77
2022-10-17T08:59:19.317Z,18.20
2022-10-17T09:01:55.777Z,19.73
2022-10-17T09:04:54.527Z,17.80
2022-10-17T09:07:44.078Z,17.02
2022-10-17T09:10:29.899Z,18.85
2022-10-17T09:13:09.111Z,18.35
2022-10-17T09:16:01.350Z,14.87
2022-10-17T09:18:35.088Z,14.20
2022-10-17T09:21:24.078Z,16.87
2022-10-17T09:23:59.663Z,13.88
2022-10-17T09:26:39.031Z,15.80
2022-10-17T09:29:16.158Z,18.75
2022-10-17T09:32:03.775Z,13.45
2022-10-17T09:34:32.541Z,11.68
2022-10-17T09:37:00.936Z,13.00
2022-10-17T09:39:31.908Z,11.73
2022-10-17T09:42:00.838Z,10.30
2022-10-17T09:44:36.231Z,11.00
2022-10-17T09:47:23.416Z,7.37
2022-10-17T09:49:51.556Z,10.02
2022-10-17T09:52:22.736Z,7.72
2022-10-17T09:55:01.822Z,13.95
2022-10-17T09:57:54.059Z,7.20
2022-10-17T10:00:34.665Z,9.57
2022-10-17T10:03:28.444Z,8.23
2022-10-17T10:06:07.096Z,9.30
2022-10-17T10:08:37.452Z,8.85
2022-10-17T10:11:13.480Z,11.23
2022-10-17T10:13:42.757Z,10.52
2022-10-17T10:16:32.374Z,10.32
2022-10-17T10:18:59.928Z,7.28
2022-10-17T10:21:27.649Z,7.40
2022-10-17T10:24:10.151Z,8.02
2022-10-17T10:26:46.351Z,9.00
2022-10-17T10:29:31.157Z,8.88
2022-10-17T10:32:12.196Z,11.48
2022-10-17T10:34:49.151Z,8.88
2022-10-17T10:37:20.215Z,8.85
2022-10-17T10:39:49.882Z,7.50
2022-10-17T10:42:24.275Z,9.75
2022-10-17T10:44:52.724Z,7.97
2022-10-17T10:47:23.960Z,8.35
2022-10-17T10:49:53.320Z,9.55
2022-10-17T10:52:29.516Z,9.27
2022-10-17T10:55:21.431Z,10.20
2022-10-17T10:57:50.533Z,10.18
2022-10-17T11:00:24.956Z,8.07
2022-10-17T11:03:01.874Z,7.35
2022-10-17T11:05:35.703Z,7.97
2022-10-17T11:08:41.838Z,8.10
2022-10-17T11:11:18.279Z,7.78
2022-10-17T11:14:11.719Z,14.18
2022-10-17T11:17:10.427Z,10.25
2022-10-17T11:19:43.949Z,8.88
2022-10-17T11:22:16.950Z,8.32
2022-10-17T11:25:05.242Z,9.50
2022-10-17T11:27:34.119Z,7.53
2022-10-17T11:30:03.556Z,4.95
2022-10-17T11:32:45.121Z,6.40
2022-10-17T11:35:28.120Z,6.60
2022-10-17T11:38:24.271Z,8.10
2022-10-17T11:40:54.965Z,7.10
2022-10-17T11:43:33.079Z,6.93
2022-10-17T11:46:24.647Z,7.93
2022-10-17T11:48:57.972Z,6.05
2022-10-17T11:54:24.888Z,5.87
2022-10-17T11:57:21.523Z,4.82
2022-10-17T11:59:57.583Z,7.60
2022-10-17T12:02:36.922Z,6.37
2022-10-17T12:05:26.487Z,7.90
2022-10-17T12:08:03.408Z,7.07
2022-10-17T12:10:39.467Z,5.15
2022-10-17T12:13:28.802Z,6.85
2022-10-17T12:15:57.607Z,4.72
2022-10-17T12:18:27.358Z,5.95
2022-10-17T12:20:59.224Z,7.90
2022-10-17T12:26:01.606Z,8.13
2022-10-17T12:28:34.239Z,6.07
2022-10-17T12:31:05.850Z,6.97
2022-10-17T12:33:50.016Z,8.32
2022-10-17T12:36:17.249Z,11.00
2022-10-17T12:38:49.860Z,6.68
2022-10-17T12:41:40.254Z,8.15
2022-10-17T12:44:14.100Z,4.62
2022-10-17T12:46:56.336Z,6.20
2022-10-17T12:49:42.551Z,7.55
2022-10-17T12:52:24.053Z,9.45
2022-10-17T12:55:00.527Z,6.93
2022-10-17T12:57:58.710Z,5.65
2022-10-17T13:00:49.669Z,6.47
2022-10-17T13:03:31.234Z,7.15
2022-10-17T13:06:01.230Z,5.47
2022-10-17T13:08:32.211Z,5.30
2022-10-17T13:11:00.068Z,10.25
2022-10-17T13:13:45.460Z,6.10
2022-10-17T13:16:37.068Z,10.73
2022-10-17T13:19:51.190Z,7.47
2022-10-17T13:22:28.147Z,6.15
2022-10-17T13:25:08.168Z,4.90
2022-10-17T13:27:36.192Z,4.78
2022-10-17T13:30:30.918Z,5.53
2022-10-17T13:33:01.117Z,8.10
2022-10-17T13:35:59.454Z,4.62
2022-10-17T13:38:28.378Z,4.30
2022-10-17T13:41:05.888Z,3.92
2022-10-17T13:43:43.843Z,5.78
2022-10-17T13:46:38.276Z,5.22
2022-10-17T13:49:35.014Z,6.80
2022-10-17T13:52:04.344Z,8.93
2022-10-17T13:54:40.267Z,5.90
2022-10-17T13:57:21.452Z,5.80
2022-10-17T13:59:55.016Z,6.95
2022-10-17T14:02:34.795Z,5.70
2022-10-17T14:05:17.870Z,4.82
2022-10-17T14:08:12.644Z,4.15
2022-10-17T14:10:43.387Z,9.73
2022-10-17T14:13:40.018Z,6.10
2022-10-17T14:16:08.561Z,5.05
2022-10-17T14:18:36.985Z,5.00
2022-10-17T14:24:22.459Z,8.68
2022-10-17T14:26:59.099Z,5.85
2022-10-17T14:29:50.050Z,5.28
2022-10-17T14:32:18.159Z,6.10
2022-10-17T14:34:46.829Z,6.55
2022-10-17T14:37:42.856Z,6.75
2022-10-17T14:40:21.314Z,4.55
2022-10-17T14:42:48.734Z,5.60
2022-10-17T14:45:26.596Z,7.97
2022-10-17T14:47:55.499Z,7.60
2022-10-17T14:50:32.079Z,6.62
2022-10-17T14:53:11.658Z,7.18
2022-10-17T14:55:40.773Z,6.40
2022-10-17T14:58:18.964Z,5.80
2022-10-17T15:00:46.541Z,5.68
2022-10-17T15:03:13.941Z,6.03
2022-10-17T15:05:41.664Z,10.63
2022-10-17T15:08:14.257Z,8.13
2022-10-17T15:10:41.992Z,10.18
2022-10-17T15:13:28.019Z,6.85
2022-10-17T15:15:56.272Z,9.07
2022-10-17T15:18:23.815Z,7.05
2022-10-17T15:20:59.513Z,6.47
2022-10-17T15:23:32.760Z,6.87
2022-10-17T15:26:00.740Z,9.27
2022-10-17T15:28:28.058Z,7.47
2022-10-17T15:30:55.711Z,5.60
2022-10-17T15:33:23.092Z,9.63
2022-10-17T15:35:51.772Z,12.23
2022-10-17T15:38:19.452Z,12.93
2022-10-17T15:40:50.738Z,26.10
2022-10-17T15:43:19.960Z,53.47
2022-10-17T15:45:48.175Z,42.08
2022-10-17T15:48:19.600Z,33.92
2022-10-17T15:50:46.910Z,24.15
2022-10-17T15:53:14.516Z,22.73
2022-10-17T15:55:42.053Z,16.83
2022-10-17T15:58:14.664Z,12.43
2022-10-17T16:00:42.327Z,16.90
2022-10-17T16:03:10.020Z,19.00
2022-10-17T16:05:37.355Z,14.00
2022-10-17T16:08:04.869Z,14.10
2022-10-17T16:10:33.278Z,48.60
2022-10-17T16:13:00.567Z,41.58
2022-10-17T16:15:28.162Z,25.35
2022-10-17T16:17:56.910Z,24.52
2022-10-17T16:20:24.909Z,28.58
2022-10-17T16:22:53.250Z,24.25
2022-10-17T16:25:26.216Z,20.02
2022-10-17T16:27:55.260Z,20.67
2022-10-17T16:30:24.753Z,18.98
2022-10-17T16:32:53.009Z,24.08
2022-10-17T16:35:33.088Z,17.85
2022-10-17T16:38:05.927Z,16.98
2022-10-17T16:40:33.461Z,17.67
2022-10-17T16:43:00.770Z,13.35
2022-10-17T16:45:28.372Z,16.35
2022-10-17T16:47:55.932Z,15.52
2022-10-17T16:50:23.289Z,21.23
2022-10-17T16:52:50.856Z,17.25
2022-10-17T16:55:18.950Z,15.57
2022-10-17T16:57:48.619Z,19.10
2022-10-17T17:00:17.396Z,22.77
2022-10-17T17:02:47.629Z,25.80
2022-10-17T17:05:15.265Z,22.77
2022-10-17T17:07:42.819Z,30.20
2022-10-17T17:10:10.148Z,28.62
2022-10-17T17:12:37.492Z,31.02
2022-10-17T17:15:06.108Z,35.25
2022-10-17T17:17:48.817Z,33.45
2022-10-17T17:20:17.946Z,34.35
2022-10-17T17:22:45.623Z,29.25
2022-10-17T17:25:12.915Z,32.55
2022-10-17T17:27:41.055Z,25.75
2022-10-17T17:30:08.763Z,32.70
2022-10-17T17:32:36.050Z,30.98
2022-10-17T17:35:03.835Z,35.50
2022-10-17T17:37:31.646Z,32.67
2022-10-17T17:39:59.157Z,35.00
2022-10-17T17:42:26.720Z,39.03
2022-10-17T17:44:54.011Z,43.03
2022-10-17T17:47:21.310Z,45.53
2022-10-17T17:49:48.848Z,41.17
2022-10-17T17:52:16.134Z,40.40
2022-10-17T17:54:44.492Z,39.03
2022-10-17T17:57:12.463Z,43.20
2022-10-17T17:59:41.098Z,40.60
2022-10-17T18:02:10.455Z,42.30
2022-10-17T18:04:38.058Z,40.00
2022-10-17T18:07:05.400Z,43.22
2022-10-17T18:09:32.696Z,40.22
2022-10-17T18:12:00.252Z,43.42
2022-10-17T18:14:27.576Z,38.88
2022-10-17T18:16:54.873Z,41.72
2022-10-17T18:19:23.726Z,38.35
2022-10-17T18:21:51.122Z,35.08
2022-10-17T18:24:18.412Z,38.22
2022-10-17T18:26:45.982Z,36.83
2022-10-17T18:29:13.281Z,35.60
2022-10-17T18:31:40.783Z,35.72
2022-10-17T18:34:08.343Z,37.78
2022-10-17T18:36:35.791Z,40.00
2022-10-17T18:39:04.330Z,35.92
2022-10-17T18:41:32.086Z,32.40
2022-10-17T18:43:59.658Z,30.83
2022-10-17T18:46:35.479Z,32.58
2022-10-17T18:49:03.453Z,28.30
2022-10-17T18:51:30.864Z,26.73
2022-10-17T18:53:58.734Z,27.83
2022-10-17T18:56:26.871Z,29.35
2022-10-17T18:58:54.990Z,44.35
2022-10-17T19:01:24.781Z,38.08
2022-10-17T19:03:53.934Z,36.35
2022-10-17T19:06:24.833Z,42.80
2022-10-17T19:08:52.547Z,41.92
2022-10-17T19:11:22.399Z,43.75
2022-10-17T19:13:50.109Z,44.47
2022-10-17T19:16:22.307Z,44.97
2022-10-17T19:18:51.344Z,42.38
2022-10-17T19:21:21.838Z,45.12
2022-10-17T19:23:51.603Z,47.47
2022-10-17T19:26:19.704Z,46.25
2022-10-17T19:28:47.815Z,50.72
2022-10-17T19:31:17.986Z,45.15
2022-10-17T19:33:46.039Z,43.75
2022-10-17T19:36:13.958Z,42.92
2022-10-17T19:38:41.270Z,45.12
2022-10-17T19:41:10.652Z,38.70
2022-10-17T19:43:42.031Z,37.33
2022-10-17T19:46:12.754Z,38.70
2022-10-17T19:48:40.113Z,39.40
2022-10-17T19:51:13.612Z,32.90
2022-10-17T19:53:41.883Z,33.03
2022-10-17T19:56:09.541Z,35.40
2022-10-17T19:58:44.413Z,35.58
2022-10-17T20:01:18.229Z,30.95
2022-10-17T20:03:46.194Z,28.12
2022-10-17T20:06:13.825Z,27.08
2022-10-17T20:08:41.434Z,27.70
2022-10-17T20:11:14.737Z,28.23
2022-10-17T20:13:42.197Z,28.20
2022-10-17T20:16:12.754Z,24.08
2022-10-17T20:18:40.912Z,26.20
2022-10-17T20:21:11.275Z,20.62
2022-10-17T20:23:39.573Z,23.40
2022-10-17T20:26:33.254Z,17.15
2022-10-17T20:29:04.178Z,20.55
2022-10-17T20:31:31.541Z,18.27
2022-10-17T20:33:59.576Z,23.17
2022-10-17T20:36:27.229Z,21.40
2022-10-17T20:38:55.643Z,21.98
2022-10-17T20:41:23.584Z,22.50
2022-10-17T20:43:53.750Z,17.98
2022-10-17T20:46:35.820Z,17.67
2022-10-17T20:49:05.972Z,17.27
2022-10-17T20:51:33.687Z,19.12
2022-10-17T20:54:00.992Z,16.98
2022-10-17T20:56:30.121Z,21.83
2022-10-17T20:58:59.857Z,16.52
2022-10-17T21:01:28.651Z,21.75
2022-10-17T21:03:59.638Z,19.92
2022-10-17T21:06:30.264Z,20.48
2022-10-17T21:08:58.095Z,17.77
2022-10-17T21:11:27.416Z,17.12
2022-10-17T21:14:02.460Z,20.33
2022-10-17T21:16:31.724Z,18.00
2022-10-17T21:18:59.430Z,14.18
2022-10-17T21:21:29.581Z,16.48
2022-10-17T21:24:00.296Z,17.17
2022-10-17T21:26:28.287Z,16.15
2022-10-17T21:28:55.682Z,17.12
2022-10-17T21:31:25.381Z,16.15
2022-10-17T21:33:56.248Z,19.08
2022-10-17T21:36:25.118Z,13.77
2022-10-17T21:38:54.138Z,15.40
2022-10-17T21:41:23.806Z,15.95
2022-10-17T21:43:56.651Z,15.00
2022-10-17T21:46:24.372Z,16.35
2022-10-17T21:48:52.271Z,17.67
2022-10-17T21:51:21.743Z,14.23
2022-10-17T21:53:50.277Z,14.80
2022-10-17T21:56:20.063Z,17.48
2022-10-17T21:58:47.948Z,17.62
2022-10-17T22:01:39.170Z,15.75
2022-10-17T22:04:09.900Z,14.23
2022-10-17T22:06:40.149Z,15.02
2022-10-17T22:09:11.770Z,17.83
2022-10-17T22:11:39.082Z,19.15
2022-10-17T22:14:17.234Z,15.90
2022-10-17T22:16:46.352Z,13.73
2022-10-17T22:19:15.754Z,15.70
2022-10-17T22:21:43.076Z,15.73
2022-10-17T22:24:12.529Z,13.62
2022-10-17T22:26:39.935Z,16.85
2022-10-17T22:29:08.147Z,13.40
2022-10-17T22:31:36.381Z,12.37
2022-10-17T22:34:05.475Z,15.13
2022-10-17T22:36:33.645Z,16.98
2022-10-17T22:39:01.298Z,15.05
2022-10-17T22:41:28.648Z,15.95
2022-10-17T22:43:55.950Z,15.70
2022-10-17T22:46:23.516Z,14.25
2022-10-17T22:48:50.867Z,14.13
2022-10-17T22:51:18.364Z,13.57
2022-10-17T22:53:45.943Z,12.57
2022-10-17T22:56:15.944Z,14.90
2022-10-17T22:58:43.315Z,13.02
2022-10-17T23:01:18.636Z,12.63
2022-10-17T23:03:46.625Z,13.15
2022-10-17T23:06:14.428Z,15.38
2022-10-17T23:08:42.177Z,15.65
2022-10-17T23:11:09.781Z,15.25
2022-10-17T23:13:37.434Z,12.95
2022-10-17T23:16:04.873Z,16.15
2022-10-17T23:18:32.215Z,13.65
2022-10-17T23:20:59.788Z,13.68
2022-10-17T23:23:27.083Z,13.15
2022-10-17T23:25:54.756Z,12.43
2022-10-17T23:28:22.323Z,13.10
2022-10-17T23:30:49.603Z,12.02
2022-10-17T23:33:16.910Z,11.00
2022-10-17T23:35:44.475Z,12.18
2022-10-17T23:38:11.781Z,16.35
2022-10-17T23:40:39.085Z,12.30
2022-10-17T23:43:06.674Z,12.77
2022-10-17T23:45:36.791Z,14.77
2022-10-17T23:48:05.469Z,11.55
2022-10-17T23:50:33.129Z,11.90
2022-10-17T23:53:00.408Z,13.52
2022-10-17T23:55:27.701Z,13.23
2022-10-17T23:57:55.387Z,11.77
